Time;durP1;ratioP1;P1;durP2;ratioP2;P2;SDS_P1;SDS_P2;PMS_P1;PMS_P2;Temp;Humidity;BMP_temperature;BMP_pressure;BME280_temperature;BME280_humidity;BME280_pressure;Samples;Min_cycle;Max_cycle;Signal;HPM_P1;HPM_P2
2023/10/16 00:01:09;;;;;;;1.25;1.25;;;;;;;9.80;100.00;63011.44;5004538;28;20615;-75
2023/10/16 00:03:38;;;;;;;1.50;1.40;;;;;;;9.85;100.00;63013.56;4993721;28;20226;-76
2023/10/16 00:06:06;;;;;;;2.42;1.17;;;;;;;9.93;100.00;63022.38;5005153;28;20597;-76
2023/10/16 00:08:34;;;;;;;1.10;1.10;;;;;;;9.97;100.00;63028.53;5004575;28;20218;-77
2023/10/16 00:11:04;;;;;;;1.10;1.10;;;;;;;10.02;100.00;63036.78;4995344;28;20240;-76
2023/10/16 00:13:35;;;;;;;0.73;0.73;;;;;;;10.04;100.00;63033.22;4999428;28;20211;-77
2023/10/16 00:16:04;;;;;;;0.85;0.85;;;;;;;10.03;100.00;63032.19;5006806;28;20245;-76
2023/10/16 00:18:33;;;;;;;0.80;0.80;;;;;;;10.04;100.00;63035.78;5005302;28;20222;-77
2023/10/16 00:21:04;;;;;;;0.77;0.77;;;;;;;10.03;100.00;63035.25;4991252;28;20265;-77
2023/10/16 00:23:38;;;;;;;0.80;0.80;;;;;;;9.80;100.00;63003.31;5005122;28;20241;-76
2023/10/16 00:26:06;;;;;;;3.20;1.23;;;;;;;9.71;100.00;62999.63;5005157;28;20219;-76
2023/10/16 00:28:33;;;;;;;0.90;0.90;;;;;;;9.79;100.00;63012.44;5000703;28;20211;-76
2023/10/16 00:31:01;;;;;;;1.08;1.08;;;;;;;9.87;100.00;63016.16;4994666;28;20536;-76
2023/10/16 00:33:29;;;;;;;1.55;0.80;;;;;;;9.99;100.00;63028.06;5005279;28;20199;-76
2023/10/16 00:35:57;;;;;;;0.65;0.65;;;;;;;10.02;100.00;63031.16;5005883;28;20250;-76
2023/10/16 00:38:25;;;;;;;0.50;0.50;;;;;;;10.06;100.00;63033.25;4996914;28;20212;-75
2023/10/16 00:41:10;;;;;;;0.52;0.52;;;;;;;9.93;100.00;63022.38;5002547;28;20381;-74
2023/10/16 00:43:37;;;;;;;0.68;0.68;;;;;;;9.91;100.00;63020.28;5005563;28;20245;-77
2023/10/16 00:46:06;;;;;;;0.95;0.90;;;;;;;9.85;100.00;63019.19;5003736;28;20242;-75
2023/10/16 00:48:36;;;;;;;0.70;0.70;;;;;;;9.67;100.00;62995.47;4999688;28;20364;-76
2023/10/16 00:51:07;;;;;;;0.95;0.95;;;;;;;9.73;100.00;63001.69;4993171;28;20239;-77
2023/10/16 00:53:35;;;;;;;1.10;1.10;;;;;;;9.74;100.00;63004.72;5004347;28;20253;-77
2023/10/16 00:56:08;;;;;;;1.10;1.02;;;;;;;9.75;100.00;63008.31;5001577;28;20239;-76
2023/10/16 00:58:35;;;;;;;0.98;0.98;;;;;;;9.75;100.00;63006.28;5005051;28;20213;-76
2023/10/16 01:01:05;;;;;;;1.23;1.20;;;;;;;9.75;100.00;63003.25;5005613;28;20286;-77
2023/10/16 01:03:37;;;;;;;1.38;1.33;;;;;;;9.57;100.00;62985.13;5006589;28;20245;-77
2023/10/16 01:06:09;;;;;;;2.85;1.20;;;;;;;9.46;100.00;62976.28;5006748;28;20223;-76
2023/10/16 01:08:38;;;;;;;1.00;1.00;;;;;;;9.61;100.00;62989.25;5009488;28;20211;-75
2023/10/16 01:11:08;;;;;;;1.77;1.17;;;;;;;9.40;100.00;62967.56;5008051;28;20241;-76
2023/10/16 01:13:38;;;;;;;1.40;1.40;;;;;;;9.40;100.00;62969.59;5006307;28;20211;-77
2023/10/16 01:16:07;;;;;;;1.48;1.48;;;;;;;9.18;100.00;62947.88;5007478;28;20298;-76
2023/10/16 01:18:35;;;;;;;1.40;1.40;;;;;;;9.13;100.00;62947.25;5010296;28;20222;-77
2023/10/16 01:21:05;;;;;;;2.53;2.42;;;;;;;8.78;100.00;62898.91;5000389;28;20228;-75
2023/10/16 01:23:35;;;;;;;2.13;2.03;;;;;;;8.51;100.00;62873.53;4999700;28;20191;-75
2023/10/16 01:26:04;;;;;;;2.25;2.15;;;;;;;8.54;100.00;62881.72;5001278;28;20247;-77
2023/10/16 01:28:32;;;;;;;2.90;2.70;;;;;;;8.51;100.00;62878.13;5006839;28;20270;-75
2023/10/16 01:31:00;;;;;;;3.15;2.97;;;;;;;8.55;100.00;62879.69;5008460;28;20235;-76
2023/10/16 01:33:27;;;;;;;1.85;1.75;;;;;;;8.42;100.00;62869.31;5006501;28;20266;-76
2023/10/16 01:35:55;;;;;;;2.78;2.58;;;;;;;8.26;100.00;62854.81;5009416;28;20222;-76
2023/10/16 01:38:24;;;;;;;3.35;3.15;;;;;;;8.27;100.00;62848.75;5009569;28;20203;-78
2023/10/16 01:41:04;;;;;;;3.20;3.00;;;;;;;8.45;100.00;62869.91;4998997;28;20227;-77
2023/10/16 01:43:32;;;;;;;4.78;3.38;;;;;;;8.40;100.00;62864.72;5005488;28;20199;-76
2023/10/16 01:46:02;;;;;;;2.97;2.78;;;;;;;8.46;100.00;62872.94;5008734;28;20226;-76
2023/10/16 01:48:30;;;;;;;2.80;2.63;;;;;;;8.49;100.00;62873.50;5002983;28;20196;-75
2023/10/16 01:50:57;;;;;;;2.70;2.60;;;;;;;8.55;100.00;62877.16;5000755;28;20219;-75
2023/10/16 01:53:28;;;;;;;2.58;2.47;;;;;;;8.66;100.00;62891.56;5006978;28;20257;-75
2023/10/16 01:55:57;;;;;;;2.80;2.70;;;;;;;8.71;100.00;62899.31;5007873;28;20246;-76
2023/10/16 01:58:30;;;;;;;3.70;3.40;;;;;;;8.61;100.00;62883.88;5006291;28;20199;-77
2023/10/16 02:00:57;;;;;;;3.63;3.38;;;;;;;8.62;100.00;62890.00;4992538;28;20568;-77
2023/10/16 02:03:26;;;;;;;4.32;4.10;;;;;;;8.55;100.00;62882.75;5008557;28;20207;-75
2023/10/16 02:05:53;;;;;;;4.43;4.13;;;;;;;8.57;100.00;62881.78;5007384;28;20227;-76
2023/10/16 02:08:21;;;;;;;4.60;4.20;;;;;;;8.51;100.00;62873.53;5005541;28;20270;-75
2023/10/16 02:10:52;;;;;;;5.45;4.95;;;;;;;8.55;100.00;62880.22;5006827;28;20227;-76
2023/10/16 02:13:21;;;;;;;4.93;4.53;;;;;;;8.47;100.00;62868.91;5006995;28;20207;-77
2023/10/16 02:15:49;;;;;;;4.72;4.43;;;;;;;8.46;100.00;62873.47;5006190;28;20225;-77
2023/10/16 02:18:27;;;;;;;4.07;3.65;;;;;;;8.47;100.00;62871.97;5005503;28;20220;-76
2023/10/16 02:20:54;;;;;;;8.77;3.75;;;;;;;8.51;100.00;62876.09;4995800;28;20226;-76
2023/10/16 02:23:21;;;;;;;5.18;3.30;;;;;;;8.55;100.00;62882.75;4999953;28;20200;-77
2023/10/16 02:25:49;;;;;;;3.63;3.42;;;;;;;8.45;100.00;62869.91;5005789;28;20223;-76
2023/10/16 02:28:19;;;;;;;5.90;4.03;;;;;;;8.55;100.00;62879.69;5006763;28;20235;-78
2023/10/16 02:30:50;;;;;;;3.95;3.65;;;;;;;8.49;100.00;62874.00;5007400;28;20219;-77
2023/10/16 02:33:23;;;;;;;3.50;3.30;;;;;;;8.46;100.00;62868.38;5006921;28;20258;-76
2023/10/16 02:35:50;;;;;;;3.40;3.20;;;;;;;8.37;100.00;62859.09;4996599;28;20591;-77
2023/10/16 02:38:27;;;;;;;4.55;4.30;;;;;;;8.43;100.00;62864.78;5000246;28;20523;-77
2023/10/16 02:41:00;;;;;;;3.47;3.28;;;;;;;8.50;100.00;62875.06;5008316;28;20219;-77
2023/10/16 02:43:27;;;;;;;4.47;4.18;;;;;;;8.54;100.00;62879.19;5006187;28;20209;-75
2023/10/16 02:46:01;;;;;;;4.63;4.25;;;;;;;8.53;100.00;62875.63;4989455;28;20228;-76
2023/10/16 02:48:28;;;;;;;4.53;4.13;;;;;;;8.57;100.00;62879.22;5007295;28;20270;-76
2023/10/16 02:50:56;;;;;;;4.18;3.88;;;;;;;8.53;100.00;62877.63;5007295;28;20398;-73
2023/10/16 02:53:25;;;;;;;4.60;4.20;;;;;;;8.57;100.00;62879.22;4999965;28;20282;-76
2023/10/16 02:56:03;;;;;;;4.18;3.75;;;;;;;8.48;100.00;62873.00;4996210;28;20289;-76
2023/10/16 02:58:30;;;;;;;5.85;4.28;;;;;;;8.47;100.00;62871.44;5008332;28;20402;-76
2023/10/16 03:00:59;;;;;;;4.60;4.20;;;;;;;8.50;100.00;62872.00;5006638;28;20215;-78
2023/10/16 03:03:28;;;;;;;3.90;3.70;;;;;;;8.50;99.99;62874.53;5005419;28;20207;-76
2023/10/16 03:05:56;;;;;;;3.90;3.63;;;;;;;8.51;99.98;62873.53;5002216;28;20227;-76
2023/10/16 03:08:29;;;;;;;4.53;4.18;;;;;;;8.34;100.00;62861.06;4986287;28;20268;-76
2023/10/16 03:10:58;;;;;;;3.55;3.35;;;;;;;8.37;100.00;62866.19;4988628;28;20255;-75
2023/10/16 03:13:26;;;;;;;4.82;4.43;;;;;;;8.43;99.67;62865.28;5005075;28;20558;-76
2023/10/16 03:15:59;;;;;;;7.60;5.72;;;;;;;8.42;99.80;62866.28;5004572;28;20423;-78
2023/10/16 03:18:29;;;;;;;4.15;3.85;;;;;;;8.33;100.00;62856.97;5003082;28;20283;-78
2023/10/16 03:21:08;;;;;;;2.80;2.60;;;;;;;8.38;99.98;62862.13;4997137;28;20235;-77
2023/10/16 03:23:35;;;;;;;5.45;3.97;;;;;;;8.42;99.38;62864.25;4998580;28;20203;-78
2023/10/16 03:26:05;;;;;;;4.57;4.28;;;;;;;8.44;99.03;62866.31;5006445;28;20234;-77
2023/10/16 03:28:32;;;;;;;4.25;3.95;;;;;;;8.37;99.83;62861.63;5007544;28;20207;-77
2023/10/16 03:31:03;;;;;;;3.88;3.50;;;;;;;8.37;100.00;62864.16;5003375;28;20251;-75
2023/10/16 03:33:35;;;;;;;3.78;3.58;;;;;;;8.39;99.58;62863.19;5006015;28;20227;-76
2023/10/16 03:36:04;;;;;;;4.20;3.90;;;;;;;8.40;99.27;62862.19;5006809;28;20281;-76
2023/10/16 03:38:37;;;;;;;3.90;3.70;;;;;;;8.38;99.20;62864.69;4993121;28;20199;-78
2023/10/16 03:41:27;;;;;;;4.57;4.38;;;;;;;8.30;99.45;62851.84;5002846;28;20406;-78
2023/10/16 03:43:56;;;;;;;5.15;4.13;;;;;;;8.19;100.00;62843.03;4991082;28;21939;-77
2023/10/16 03:46:24;;;;;;;3.97;3.67;;;;;;;8.23;99.99;62844.09;5003891;28;20224;-79
2023/10/16 03:48:53;;;;;;;4.18;3.80;;;;;;;8.02;100.00;62825.97;5004744;28;20211;-75
2023/10/16 03:51:21;;;;;;;7.97;4.28;;;;;;;8.12;100.00;62835.78;5005628;28;20527;-76
2023/10/16 03:53:52;;;;;;;7.35;4.22;;;;;;;8.15;100.00;62833.81;5006340;28;20199;-76
2023/10/16 03:56:19;;;;;;;5.00;4.60;;;;;;;8.13;100.00;62837.34;4993825;28;20224;-75
2023/10/16 03:58:47;;;;;;;4.18;3.80;;;;;;;8.10;100.00;62836.25;4994695;28;20456;-76
2023/10/16 04:01:17;;;;;;;4.97;4.60;;;;;;;8.17;99.77;62843.47;5001285;28;20220;-76
2023/10/16 04:03:47;;;;;;;5.10;4.70;;;;;;;8.25;99.27;62848.72;5002870;28;20270;-77
2023/10/16 04:06:19;;;;;;;5.28;4.80;;;;;;;8.12;99.04;62838.84;4985887;28;20220;-76
2023/10/16 04:08:47;;;;;;;5.32;4.75;;;;;;;8.08;99.22;62829.63;4999399;28;20262;-76
2023/10/16 04:11:14;;;;;;;5.95;5.45;;;;;;;8.03;99.01;62827.00;5003529;28;20278;-76
2023/10/16 04:13:47;;;;;;;10.63;5.53;;;;;;;8.00;99.08;62826.47;5002715;28;20405;-76
2023/10/16 04:16:29;;;;;;;12.43;5.00;;;;;;;8.06;98.73;62832.63;4998478;28;20215;-76
2023/10/16 04:19:07;;;;;;;6.43;4.90;;;;;;;8.13;97.91;62836.81;4969739;28;20294;-75
2023/10/16 04:21:41;;;;;;;5.18;4.75;;;;;;;8.12;97.32;62835.78;4996171;28;20203;-76
2023/10/16 04:24:30;;;;;;;5.15;4.85;;;;;;;8.17;96.49;62840.94;4994872;28;20376;-75
2023/10/16 04:29:49;;;;;;;4.03;3.72;;;;;;;8.17;95.83;62843.47;4985593;28;20255;-75
2023/10/16 04:32:20;;;;;;;5.60;5.13;;;;;;;8.15;96.42;62833.81;5002724;28;20237;-76
2023/10/16 04:34:53;;;;;;;4.80;4.45;;;;;;;8.17;95.61;62835.88;4991250;28;20239;-75
2023/10/16 04:37:29;;;;;;;8.60;5.10;;;;;;;8.13;96.02;62834.81;5005301;28;20282;-75
2023/10/16 04:43:07;;;;;;;5.50;4.97;;;;;;;8.14;95.84;62835.31;4999651;28;20546;-75
2023/10/16 04:45:39;;;;;;;6.60;5.18;;;;;;;8.01;96.63;62824.41;5000745;28;20235;-75
2023/10/16 04:48:23;;;;;;;7.10;4.90;;;;;;;7.97;96.90;62817.78;5006489;28;20203;-76
2023/10/16 04:53:48;;;;;;;4.15;3.85;;;;;;;7.92;96.59;62815.16;4996123;28;20250;-77
2023/10/16 04:56:29;;;;;;;3.90;3.60;;;;;;;7.97;96.67;62818.28;4991870;28;20223;-76
2023/10/16 04:59:00;;;;;;;4.70;4.40;;;;;;;7.97;96.04;62817.78;5002012;28;20214;-74
2023/10/16 05:07:06;;;;;;;5.07;4.57;;;;;;;8.08;96.79;62831.66;4991627;28;20198;-77
2023/10/16 05:18:11;;;;;;;4.80;4.43;;;;;;;8.14;95.04;62840.41;5004953;28;20246;-75
2023/10/16 06:16:18;;;;;;;5.47;4.00;;;;;;;8.16;90.33;62840.44;5000220;28;20260;-75
2023/10/16 06:18:47;;;;;;;4.85;3.80;;;;;;;8.28;89.79;62854.88;5000147;28;20418;-77
2023/10/16 06:21:15;;;;;;;5.10;3.70;;;;;;;8.30;88.00;62859.47;4990214;28;20223;-76
2023/10/16 06:23:48;;;;;;;3.85;3.55;;;;;;;8.30;86.59;62853.88;4997513;28;20225;-75
2023/10/16 06:26:16;;;;;;;8.18;3.58;;;;;;;8.21;87.43;62845.59;5002846;28;20211;-75
2023/10/16 06:28:51;;;;;;;3.55;3.35;;;;;;;8.20;86.77;62851.66;5007454;28;20219;-76
2023/10/16 06:31:24;;;;;;;4.53;2.95;;;;;;;8.29;85.95;62855.38;5007799;28;20287;-74
2023/10/16 06:33:56;;;;;;;3.60;3.40;;;;;;;8.32;85.78;62858.50;5004069;28;20227;-77
2023/10/16 06:36:25;;;;;;;4.85;3.45;;;;;;;8.37;84.97;62861.63;5001954;28;20558;-75
2023/10/16 06:38:52;;;;;;;4.43;3.25;;;;;;;8.54;83.90;62878.69;5006232;28;20209;-76
2023/10/16 06:41:21;;;;;;;5.28;2.67;;;;;;;8.64;82.04;62886.47;5006303;28;20290;-76
2023/10/16 06:43:48;;;;;;;3.72;3.22;;;;;;;8.69;81.41;62894.69;5002131;28;20254;-75
2023/10/16 06:46:23;;;;;;;3.78;3.20;;;;;;;8.59;81.63;62886.38;5003289;28;20230;-75
2023/10/16 06:48:53;;;;;;;3.95;3.13;;;;;;;8.68;80.80;62895.69;5005241;28;20207;-77
2023/10/16 06:51:25;;;;;;;3.97;2.55;;;;;;;8.85;80.59;62913.25;5005851;28;20267;-75
2023/10/16 06:53:53;;;;;;;3.63;3.08;;;;;;;8.76;79.96;62899.38;5005831;28;20239;-76
2023/10/16 06:56:30;;;;;;;3.20;2.90;;;;;;;8.88;79.36;62916.34;5007089;28;20223;-75
2023/10/16 06:58:58;;;;;;;4.40;2.67;;;;;;;8.99;78.12;62927.72;5006490;28;20207;-75
2023/10/16 07:01:26;;;;;;;11.23;3.42;;;;;;;9.01;77.98;62927.75;5005704;28;20477;-75
2023/10/16 07:03:56;;;;;;;3.38;3.08;;;;;;;9.04;77.96;62925.78;5005008;28;20204;-75
2023/10/16 07:06:32;;;;;;;7.00;3.17;;;;;;;8.65;79.26;62887.50;5006360;28;20225;-75
2023/10/16 07:09:00;;;;;;;2.95;2.75;;;;;;;8.56;79.60;62880.75;5007157;28;20243;-75
2023/10/16 07:11:28;;;;;;;3.00;2.70;;;;;;;8.55;79.30;62877.69;5004198;28;20223;-75
2023/10/16 07:13:56;;;;;;;2.92;2.78;;;;;;;8.64;79.62;62891.53;5003555;28;20239;-75
2023/10/16 07:16:23;;;;;;;6.30;3.55;;;;;;;8.65;80.52;62893.09;4995115;28;20220;-76
2023/10/16 07:18:54;;;;;;;3.55;3.25;;;;;;;8.70;79.62;62898.25;5003414;28;20267;-75
2023/10/16 07:21:25;;;;;;;2.95;2.85;;;;;;;8.64;78.82;62889.53;4987240;28;20230;-75
2023/10/16 07:23:53;;;;;;;2.95;2.67;;;;;;;8.71;78.32;62896.75;5003269;28;20200;-76
2023/10/16 07:26:24;;;;;;;2.13;2.03;;;;;;;8.59;78.62;62883.84;4989598;28;20227;-75
2023/10/16 07:28:52;;;;;;;2.67;2.33;;;;;;;8.72;78.04;62899.81;4993112;28;20203;-75
2023/10/16 07:31:22;;;;;;;6.75;2.22;;;;;;;8.87;77.07;62910.25;4996893;28;20215;-75
2023/10/16 07:33:54;;;;;;;3.75;2.20;;;;;;;8.72;77.69;62890.16;5002678;28;20231;-76
2023/10/16 07:36:23;;;;;;;5.03;2.08;;;;;;;8.88;77.01;62911.78;5004405;28;20267;-76
2023/10/16 07:38:51;;;;;;;3.17;2.85;;;;;;;9.06;73.87;62932.91;5005336;28;20203;-76
2023/10/16 07:41:23;;;;;;;4.95;2.40;;;;;;;9.19;72.75;62948.38;5006866;28;20219;-75
2023/10/16 07:43:56;;;;;;;2.53;2.40;;;;;;;9.40;72.23;62967.03;5003868;28;20192;-75
2023/10/16 07:46:30;;;;;;;5.15;2.50;;;;;;;9.48;70.60;62975.81;4997212;28;20567;-75
2023/10/16 07:49:09;;;;;;;5.10;2.83;;;;;;;9.66;70.26;62999.00;4987565;28;20272;-75
2023/10/16 07:51:45;;;;;;;2.75;2.40;;;;;;;9.79;67.34;63009.91;4990068;28;20203;-76
2023/10/16 07:54:12;;;;;;;2.55;2.20;;;;;;;9.92;67.81;63018.78;4986423;28;20223;-76
2023/10/16 07:56:40;;;;;;;2.70;2.22;;;;;;;9.94;64.90;63025.44;5000819;28;20268;-76
2023/10/16 07:59:10;;;;;;;5.07;2.20;;;;;;;9.93;63.54;63024.91;5001711;28;20210;-75
2023/10/16 08:01:48;;;;;;;4.63;2.72;;;;;;;9.99;64.27;63028.56;5004920;28;20222;-74
2023/10/16 08:07:06;;;;;;;2.45;2.05;;;;;;;10.00;61.63;63032.16;4985870;28;20196;-75
2023/10/16 08:12:35;;;;;;;2.20;2.10;;;;;;;10.17;61.68;63049.25;4985992;28;20395;-76
2023/10/16 08:15:08;;;;;;;3.45;2.20;;;;;;;10.32;58.43;63062.22;4999968;28;20223;-76
2023/10/16 08:17:37;;;;;;;3.47;2.20;;;;;;;10.47;57.21;63077.75;5006025;28;20231;-75
2023/10/16 08:20:08;;;;;;;1.85;1.58;;;;;;;10.61;56.83;63091.72;4996263;28;20223;-76
2023/10/16 08:22:37;;;;;;;3.95;2.25;;;;;;;10.45;57.99;63083.84;4994794;28;20199;-77
2023/10/16 08:25:07;;;;;;;2.22;2.13;;;;;;;10.63;57.12;63093.78;4999939;28;20227;-75
2023/10/16 08:27:47;;;;;;;3.13;2.10;;;;;;;10.64;57.60;63094.81;5001543;28;20396;-76
2023/10/16 08:30:32;;;;;;;2.92;2.28;;;;;;;10.81;56.40;63115.47;5002635;28;20245;-76
2023/10/16 08:33:07;;;;;;;3.40;2.15;;;;;;;10.79;56.33;63113.41;5001841;28;20298;-75
2023/10/16 08:35:38;;;;;;;2.42;1.77;;;;;;;10.85;54.43;63114.53;4999616;28;20221;-75
2023/10/16 08:38:13;;;;;;;5.13;1.95;;;;;;;11.06;53.72;63136.25;5004855;28;20431;-76
2023/10/16 08:40:44;;;;;;;2.47;2.15;;;;;;;11.17;53.68;63154.78;5002082;28;20236;-77
2023/10/16 08:43:17;;;;;;;3.95;1.85;;;;;;;11.11;52.95;63146.03;4999163;28;20214;-76
2023/10/16 08:45:49;;;;;;;4.00;2.00;;;;;;;11.23;52.96;63153.38;5001988;28;20287;-74
2023/10/16 08:48:19;;;;;;;2.35;1.88;;;;;;;11.22;51.21;63157.41;5003439;28;20513;-75
2023/10/16 08:50:58;;;;;;;2.10;2.00;;;;;;;11.32;51.07;63162.69;4990835;28;20287;-75
2023/10/16 08:53:33;;;;;;;2.40;2.20;;;;;;;11.13;52.08;63148.09;4986191;28;20231;-77
2023/10/16 08:56:03;;;;;;;4.15;1.52;;;;;;;11.14;51.41;63149.66;4988159;28;20222;-74
2023/10/16 08:58:36;;;;;;;1.45;1.35;;;;;;;10.66;51.75;63101.97;4986728;28;20191;-75
2023/10/16 09:01:07;;;;;;;2.22;1.92;;;;;;;10.80;51.14;63111.91;5001251;28;20429;-76
2023/10/16 09:03:38;;;;;;;2.70;1.73;;;;;;;10.79;50.91;63110.88;5005087;28;20262;-74
2023/10/16 09:06:05;;;;;;;5.13;2.05;;;;;;;11.07;50.26;63142.41;5004658;28;20327;-75
2023/10/16 09:08:35;;;;;;;3.63;1.50;;;;;;;11.15;49.08;63150.69;4989932;28;20254;-76
2023/10/16 09:11:06;;;;;;;3.97;1.88;;;;;;;11.40;48.94;63178.63;4985631;28;20296;-75
2023/10/16 09:13:37;;;;;;;4.45;2.10;;;;;;;11.58;48.88;63195.22;5002950;28;20231;-75
2023/10/16 09:16:11;;;;;;;2.53;1.50;;;;;;;11.71;48.49;63205.13;5004104;28;20230;-76
2023/10/16 09:18:39;;;;;;;2.88;1.75;;;;;;;11.75;48.81;63214.91;5004414;28;20253;-75
2023/10/16 09:21:13;;;;;;;1.75;1.50;;;;;;;11.77;48.16;63208.81;5003235;28;20265;-75
2023/10/16 09:23:51;;;;;;;2.15;1.50;;;;;;;11.97;48.19;63237.69;4988858;28;20411;-76
2023/10/16 09:26:18;;;;;;;2.97;1.60;;;;;;;12.11;46.93;63246.56;4989513;28;20231;-74
2023/10/16 09:28:49;;;;;;;1.65;1.27;;;;;;;12.14;45.76;63252.22;4992632;28;20253;-75
2023/10/16 09:31:18;;;;;;;1.98;1.58;;;;;;;12.09;46.24;63247.59;5003403;28;20222;-77
2023/10/16 09:33:48;;;;;;;3.70;1.60;;;;;;;12.12;46.45;63247.59;5007414;28;20250;-75
2023/10/16 09:36:21;;;;;;;1.67;1.55;;;;;;;12.21;45.68;63260.03;4996201;28;20549;-75
2023/10/16 09:38:56;;;;;;;2.20;2.00;;;;;;;12.26;46.12;63262.13;4991039;28;20481;-75
2023/10/16 09:41:39;;;;;;;4.78;1.92;;;;;;;12.42;46.03;63274.13;4988912;28;20238;-75
2023/10/16 09:44:22;;;;;;;1.90;1.80;;;;;;;12.28;46.03;63266.75;5000784;28;20282;-76
2023/10/16 09:46:52;;;;;;;1.90;1.80;;;;;;;12.14;46.20;63254.78;5004528;28;20199;-75
2023/10/16 09:49:25;;;;;;;4.45;2.45;;;;;;;11.69;47.42;63201.03;4997292;28;20215;-75
2023/10/16 09:51:59;;;;;;;1.52;1.42;;;;;;;11.86;46.92;63218.63;4999727;28;20247;-77
2023/10/16 09:54:31;;;;;;;2.33;1.55;;;;;;;12.11;45.69;63247.09;4993030;28;20583;-75
2023/10/16 09:57:01;;;;;;;5.20;1.83;;;;;;;12.43;45.26;63272.09;5003396;28;20238;-74
2023/10/16 09:59:33;;;;;;;1.90;1.80;;;;;;;12.56;45.08;63293.72;4992888;28;20252;-75
2023/10/16 10:02:09;;;;;;;1.73;1.65;;;;;;;12.75;44.43;63312.94;4991406;28;20243;-75
2023/10/16 10:04:38;;;;;;;2.58;1.67;;;;;;;12.67;43.99;63307.69;5003257;28;20235;-75
2023/10/16 10:07:13;;;;;;;1.83;1.58;;;;;;;12.29;45.96;63265.75;5006738;28;20202;-75
2023/10/16 10:09:46;;;;;;;4.22;1.88;;;;;;;12.30;45.42;63266.28;5006175;28;20223;-76
2023/10/16 10:12:23;;;;;;;3.38;1.95;;;;;;;12.53;45.30;63293.19;5002608;28;20463;-77
2023/10/16 10:15:12;;;;;;;1.85;1.73;;;;;;;12.40;44.87;63276.63;4994104;28;20233;-75
2023/10/16 10:17:40;;;;;;;1.42;1.27;;;;;;;12.48;44.84;63288.00;4998142;28;20200;-76
2023/10/16 10:20:09;;;;;;;1.80;1.70;;;;;;;12.54;44.24;63291.16;4991738;28;20269;-78
2023/10/16 10:22:44;;;;;;;3.92;1.77;;;;;;;12.74;43.97;63309.84;4994033;28;20195;-75
2023/10/16 10:25:22;;;;;;;2.15;1.63;;;;;;;12.54;44.62;63293.72;5007521;28;20226;-75
2023/10/16 10:27:50;;;;;;;2.17;1.70;;;;;;;12.60;44.39;63302.47;5007279;28;20207;-75
2023/10/16 10:30:18;;;;;;;5.07;2.00;;;;;;;12.36;44.42;63275.03;5000443;28;20476;-75
2023/10/16 10:32:55;;;;;;;1.60;1.50;;;;;;;12.31;44.84;63269.84;5003093;28;20386;-77
2023/10/16 10:35:26;;;;;;;1.63;1.50;;;;;;;12.40;43.99;63279.72;5005688;28;20472;-76
2023/10/16 10:38:20;;;;;;;1.48;1.38;;;;;;;12.56;43.30;63296.28;5004087;28;20203;-77
2023/10/16 10:41:17;;;;;;;1.50;1.50;;;;;;;12.31;43.74;63267.31;4998562;28;20259;-77
2023/10/16 10:43:47;;;;;;;3.20;1.77;;;;;;;12.48;43.97;63287.47;5002509;28;20235;-76
2023/10/16 10:46:25;;;;;;;1.55;1.45;;;;;;;12.45;44.08;63284.38;4999468;28;20387;-76
2023/10/16 10:48:54;;;;;;;2.13;1.63;;;;;;;12.68;43.14;63308.72;4999443;28;20210;-75
2023/10/16 10:51:23;;;;;;;3.47;1.75;;;;;;;12.71;42.84;63308.78;4991782;28;20452;-76
2023/10/16 10:53:54;;;;;;;2.33;1.52;;;;;;;12.70;42.78;63310.31;4997248;28;20227;-75
2023/10/16 10:56:29;;;;;;;2.13;1.55;;;;;;;12.82;43.09;63320.19;4995012;28;20410;-77
2023/10/16 10:58:56;;;;;;;1.63;1.52;;;;;;;12.70;42.85;63307.75;4993478;28;20199;-77
2023/10/16 11:01:34;;;;;;;1.35;1.35;;;;;;;12.63;43.41;63301.00;4999976;28;20230;-76
2023/10/16 11:04:09;;;;;;;2.17;1.55;;;;;;;12.86;42.66;63326.38;5000052;28;20567;-78
2023/10/16 11:06:48;;;;;;;2.13;1.60;;;;;;;12.94;42.50;63335.19;4995012;28;20203;-76
2023/10/16 11:09:18;;;;;;;2.70;1.50;;;;;;;12.80;43.02;63323.72;4995802;28;20207;-75
2023/10/16 11:11:50;;;;;;;1.33;1.33;;;;;;;12.81;42.54;63321.69;4995224;28;20200;-75
2023/10/16 11:14:19;;;;;;;1.75;1.58;;;;;;;13.11;42.29;63347.22;4995202;28;20232;-76
2023/10/16 11:16:48;;;;;;;1.48;1.38;;;;;;;13.40;41.71;63379.84;4998875;28;20202;-77
2023/10/16 11:19:27;;;;;;;3.38;1.83;;;;;;;13.62;41.00;63408.31;4995977;28;20517;-76
2023/10/16 11:21:56;;;;;;;1.70;1.30;;;;;;;13.67;40.59;63407.88;4998948;28;20196;-75
2023/10/16 11:24:25;;;;;;;3.72;1.70;;;;;;;13.47;40.72;63389.66;4996655;28;20207;-76
2023/10/16 11:26:55;;;;;;;1.60;1.50;;;;;;;13.30;41.21;63366.91;4998681;28;20224;-77
2023/10/16 11:29:26;;;;;;;1.42;1.33;;;;;;;13.39;39.97;63381.88;4993552;28;20259;-77
2023/10/16 11:31:53;;;;;;;2.60;1.35;;;;;;;13.51;40.24;63394.34;4999964;28;20245;-77
2023/10/16 11:34:24;;;;;;;1.52;1.20;;;;;;;13.59;40.07;63402.66;4993038;28;20541;-76
2023/10/16 11:36:51;;;;;;;1.50;1.50;;;;;;;13.74;40.11;63415.66;4995785;28;20215;-75
2023/10/16 11:39:21;;;;;;;1.20;1.20;;;;;;;13.77;39.49;63418.75;4995379;28;20200;-75
2023/10/16 11:41:48;;;;;;;2.85;1.30;;;;;;;13.64;39.73;63405.28;4996248;28;20208;-79
2023/10/16 11:44:19;;;;;;;2.20;1.27;;;;;;;13.39;40.44;63381.88;4993867;28;20249;-76
2023/10/16 11:46:51;;;;;;;1.65;1.55;;;;;;;13.36;40.60;63375.69;4995634;28;20272;-76
2023/10/16 11:49:35;;;;;;;2.45;1.67;;;;;;;13.52;39.97;63392.31;4997164;28;20210;-76
2023/10/16 11:52:19;;;;;;;1.45;1.35;;;;;;;13.48;40.16;63391.22;4996064;28;20207;-76
2023/10/16 11:54:48;;;;;;;1.45;1.45;;;;;;;13.67;39.78;63413.50;4993862;28;20235;-77
2023/10/16 11:57:16;;;;;;;3.88;1.48;;;;;;;13.71;40.49;63417.66;4996485;28;20204;-77
2023/10/16 11:59:45;;;;;;;1.80;1.33;;;;;;;13.95;38.62;63436.94;4995473;28;20250;-76
2023/10/16 12:02:13;;;;;;;1.25;1.15;;;;;;;14.01;38.24;63443.16;4993559;28;20278;-74
2023/10/16 12:04:41;;;;;;;1.90;1.80;;;;;;;13.88;38.70;63432.75;4995428;28;20227;-74
2023/10/16 12:07:08;;;;;;;1.65;1.60;;;;;;;13.96;38.82;63437.97;5000007;28;20481;-76
2023/10/16 12:09:42;;;;;;;2.03;1.50;;;;;;;14.06;39.27;63450.91;4997913;28;20219;-75
2023/10/16 12:12:19;;;;;;;2.78;1.27;;;;;;;13.87;39.05;63428.63;4991238;28;20212;-76
2023/10/16 12:14:49;;;;;;;2.05;1.60;;;;;;;14.03;38.72;63445.22;4993890;28;20479;-77
2023/10/16 12:17:19;;;;;;;2.67;1.30;;;;;;;13.96;38.68;63443.09;5001884;28;20211;-74
2023/10/16 12:19:47;;;;;;;2.28;1.30;;;;;;;13.93;38.65;63439.47;5009531;28;20557;-75
2023/10/16 12:22:15;;;;;;;1.40;1.40;;;;;;;13.99;38.68;63443.66;5011315;28;20242;-76
2023/10/16 12:24:43;;;;;;;1.75;1.65;;;;;;;14.16;38.42;63458.22;5005785;28;20390;-76
2023/10/16 12:27:15;;;;;;;1.52;1.42;;;;;;;14.31;38.83;63476.88;5009150;28;20203;-76
2023/10/16 12:29:44;;;;;;;1.52;1.42;;;;;;;14.47;37.76;63487.84;5008550;28;20218;-76
2023/10/16 12:32:12;;;;;;;3.03;1.58;;;;;;;14.16;37.96;63455.66;5005163;28;21235;-76
2023/10/16 12:34:41;;;;;;;2.22;1.50;;;;;;;14.24;38.13;63464.47;5005939;28;20317;-77
2023/10/16 12:37:08;;;;;;;3.58;1.50;;;;;;;14.38;36.98;63481.06;5009221;28;20207;-77
2023/10/16 12:39:45;;;;;;;1.65;1.55;;;;;;;14.18;37.49;63462.84;5008340;28;20246;-77
2023/10/16 12:42:13;;;;;;;1.40;1.33;;;;;;;14.27;37.31;63467.59;5014083;28;20515;-76
2023/10/16 12:44:41;;;;;;;3.13;1.48;;;;;;;14.50;36.88;63493.53;5002592;28;20219;-77
2023/10/16 12:47:08;;;;;;;1.48;1.38;;;;;;;14.74;36.72;63518.47;4999838;28;20488;-77
2023/10/16 12:49:36;;;;;;;1.92;1.33;;;;;;;14.90;35.71;63535.63;5010579;28;20226;-78
2023/10/16 12:52:05;;;;;;;1.40;1.38;;;;;;;14.99;35.62;63542.41;5013578;28;20299;-77
2023/10/16 12:54:32;;;;;;;1.52;1.40;;;;;;;15.06;35.76;63552.22;5011661;28;20454;-74
2023/10/16 12:57:02;;;;;;;1.35;1.33;;;;;;;15.20;36.52;63561.13;5007273;28;20221;-76
2023/10/16 12:59:30;;;;;;;2.58;1.42;;;;;;;15.20;35.53;63570.88;5006922;28;20214;-76
2023/10/16 13:01:59;;;;;;;2.70;1.40;;;;;;;15.13;35.59;63555.91;5009519;28;20217;-76
2023/10/16 13:04:28;;;;;;;1.35;1.17;;;;;;;15.06;35.30;63554.78;5004300;28;20235;-75
2023/10/16 13:06:57;;;;;;;1.27;1.27;;;;;;;15.12;35.41;63557.94;5004259;28;20234;-75
2023/10/16 13:09:24;;;;;;;4.57;1.67;;;;;;;15.22;34.71;63573.47;4994246;28;20285;-75
2023/10/16 13:11:52;;;;;;;1.67;1.40;;;;;;;14.95;34.79;63542.84;4997988;28;20208;-77
2023/10/16 13:14:24;;;;;;;1.15;1.15;;;;;;;14.87;35.33;63531.97;4996393;28;20299;-78
2023/10/16 13:16:54;;;;;;;1.63;1.52;;;;;;;14.87;35.45;63531.97;4998921;28;20213;-76
2023/10/16 13:19:22;;;;;;;1.60;1.50;;;;;;;14.97;35.43;63544.94;5001300;28;20461;-76